Raven's Dance — WDF7230 — position and weather

sailwx.info

Track history (hours):
 
Tides and Currents Weather Stations Pressure Air Temp Water Temp Dewpoint Dewpoint Depression Visibility Wind Speed Wind Dir Waves Ship Positions

Raven's Dance

Owner: Lassila, Donald A, Gig Harbor, WA. More information available from US FCC via Universal Licensing System and Coast Guard Vessel Documentation Center.

Last reported at 2017-Aug-17 14:59 UTC. Time now 2017-Aug-17 15:19 UTC.
Position N 47°24' W 122°20'.

Length 14 m.

Type: Sailing vessel. MMSI: 367482370.

Date/timePositionNaut miles runAvg speedWind from/ knotsBaromVisibWave heightAir tempDewpointWater temp
2017-Aug-17 14:59N 47°24' W 122°20'0 0.0
2017-Aug-17 14:29N 47°24' W 122°20'0 0.0
2017-Aug-17 13:59N 47°24' W 122°20'0 0.0
2017-Aug-17 13:26N 47°24' W 122°20'0 0.0
2017-Aug-17 12:56N 47°24' W 122°20'0 0.0
2017-Aug-17 12:29N 47°24' W 122°20'0 0.0
2017-Aug-17 11:59N 47°24' W 122°20'0 0.0
2017-Aug-17 11:29N 47°24' W 122°20'0 0.0
2017-Aug-17 10:59N 47°24' W 122°20'0 0.0
2017-Aug-17 10:29N 47°24' W 122°20'0 0.0
2017-Aug-17 09:59N 47°24' W 122°20'0 0.0
2017-Aug-17 09:29N 47°24' W 122°20'0 0.0
2017-Aug-17 08:59N 47°24' W 122°20'0 0.0
2017-Aug-17 08:29N 47°24' W 122°20'0 0.0
2017-Aug-17 07:56N 47°24' W 122°20'0 0.0
2017-Aug-17 07:29N 47°24' W 122°20'0 0.0
2017-Aug-17 06:59N 47°24' W 122°20'0 0.0
2017-Aug-17 06:29N 47°24' W 122°20'0 0.0
2017-Aug-17 05:59N 47°24' W 122°20'0 0.0
2017-Aug-17 05:29N 47°24' W 122°20'0 0.0
2017-Aug-17 04:59N 47°24' W 122°20'0 0.0
2017-Aug-17 04:29N 47°24' W 122°20'0 0.0
2017-Aug-17 03:59N 47°24' W 122°20'0 0.0
2017-Aug-17 03:29N 47°24' W 122°20'0 0.0
2017-Aug-17 02:59N 47°24' W 122°20'0 0.0
2017-Aug-17 02:29N 47°24' W 122°20'0 0.0
2017-Aug-17 01:59N 47°24' W 122°20'0 0.4
2017-Aug-17 01:30N 47°24' W 122°20'2 4.5
2017-Aug-17 01:00N 47°26' W 122°22'3 6.6
2017-Aug-17 00:30N 47°29' W 122°25'3 6.6
2017-Aug-17 00:00N 47°31' W 122°27'3 6.6
2017-Aug-16 23:30N 47°34' W 122°31'3 5.8
2017-Aug-16 23:00N 47°35' W 122°34'3 6.6
2017-Aug-16 22:30N 47°33' W 122°38'1 1.1
2017-Aug-16 22:00N 47°32' W 122°39'0 0.0
2017-Aug-16 21:30N 47°32' W 122°39'0 0.0
2017-Aug-16 21:00N 47°32' W 122°39'0 0.0
2017-Aug-16 20:30N 47°32' W 122°39'0 0.0
2017-Aug-16 20:00N 47°32' W 122°39'0 0.0
2017-Aug-16 19:27N 47°32' W 122°39'0 0.0
2017-Aug-16 18:57N 47°32' W 122°39'0 0.0
2017-Aug-16 18:30N 47°32' W 122°39'0 0.0
2017-Aug-16 18:00N 47°32' W 122°39'0 0.0
2017-Aug-16 17:27N 47°32' W 122°39'0 0.0
2017-Aug-16 16:57N 47°32' W 122°39'0 0.0
2017-Aug-16 16:27N 47°32' W 122°39'0 0.0
2017-Aug-16 15:54N 47°32' W 122°39'0 0.0
2017-Aug-16 15:27N 47°32' W 122°39'0 0.0
2017-Aug-16 15:00N 47°32' W 122°39'0 0.0
2017-Aug-16 14:27N 47°32' W 122°39'0 0.0
2017-Aug-16 14:00N 47°32' W 122°39'0 0.0
2017-Aug-16 13:30N 47°32' W 122°39'0 0.0
2017-Aug-16 13:00N 47°32' W 122°39'0 0.0
2017-Aug-16 12:30N 47°32' W 122°39'0 0.0
2017-Aug-16 12:00N 47°32' W 122°39'0 0.0
2017-Aug-16 11:30N 47°32' W 122°39'0 0.0
2017-Aug-16 11:00N 47°32' W 122°39'0 0.0
2017-Aug-16 10:27N 47°32' W 122°39'0 0.0
2017-Aug-16 10:00N 47°32' W 122°39'0 0.0
2017-Aug-16 09:30N 47°32' W 122°39'0 0.0
2017-Aug-16 09:00N 47°32' W 122°39'0 0.0
2017-Aug-16 08:30N 47°32' W 122°39'0 0.0
2017-Aug-16 07:57N 47°32' W 122°39'0 0.0
2017-Aug-16 07:30N 47°32' W 122°39'0 0.0
2017-Aug-16 07:00N 47°32' W 122°39'0 0.0
2017-Aug-16 06:30N 47°32' W 122°39'0 0.0
2017-Aug-16 06:00N 47°32' W 122°39'0 0.0
2017-Aug-16 05:30N 47°32' W 122°39'0 0.0
2017-Aug-16 05:00N 47°32' W 122°39'0 0.0
2017-Aug-16 04:30N 47°32' W 122°39'0 0.0
2017-Aug-16 04:00N 47°32' W 122°39'0 0.0
2017-Aug-16 03:30N 47°32' W 122°39'0 0.0
2017-Aug-16 03:00N 47°32' W 122°39'0 0.0
2017-Aug-16 02:30N 47°32' W 122°39'0 0.0
2017-Aug-16 02:00N 47°32' W 122°39'0 0.0
2017-Aug-16 01:30N 47°32' W 122°39'0 0.0
2017-Aug-16 00:57N 47°32' W 122°39'0 0.0
2017-Aug-16 00:30N 47°32' W 122°39'0 0.0
2017-Aug-16 00:00N 47°32' W 122°39'0 0.0
2017-Aug-15 23:30N 47°32' W 122°39'0 0.0
2017-Aug-15 22:57N 47°32' W 122°39'0 0.0
2017-Aug-15 22:30N 47°32' W 122°39'0 0.0
2017-Aug-15 21:57N 47°32' W 122°39'0 0.0
2017-Aug-15 21:30N 47°32' W 122°39'0 0.0
2017-Aug-15 21:00N 47°32' W 122°39'0 0.0
2017-Aug-15 20:30N 47°32' W 122°39'0 0.0
2017-Aug-15 20:00N 47°32' W 122°39'0 0.0
2017-Aug-15 19:27N 47°32' W 122°39'0 0.0
2017-Aug-15 18:51N 47°32' W 122°39'0 0.0
2017-Aug-15 18:24N 47°32' W 122°39'0 0.0
2017-Aug-15 18:00N 47°32' W 122°39'0 0.0
2017-Aug-15 17:30N 47°32' W 122°39'0 0.0
2017-Aug-15 17:00N 47°32' W 122°39'0 0.0
2017-Aug-15 16:30N 47°32' W 122°39'0 0.0
2017-Aug-15 16:00N 47°32' W 122°39'0 0.0
2017-Aug-15 15:30N 47°32' W 122°39'0 0.0
2017-Aug-15 15:00N 47°32' W 122°39'0 0.0
2017-Aug-15 14:24N 47°32' W 122°39'0 0.0
2017-Aug-15 14:00N 47°32' W 122°39'0 0.0
2017-Aug-15 13:30N 47°32' W 122°39'0 0.0
2017-Aug-15 13:00N 47°32' W 122°39'0 0.0
2017-Aug-15 12:30N 47°32' W 122°39'0 0.0
2017-Aug-15 12:00N 47°32' W 122°39'0 0.0
2017-Aug-15 11:27N 47°32' W 122°39'0 0.0
2017-Aug-15 11:00N 47°32' W 122°39'0 0.0
2017-Aug-15 10:30N 47°32' W 122°39'0 0.0
2017-Aug-15 10:00N 47°32' W 122°39'0 0.0
2017-Aug-15 09:30N 47°32' W 122°39'0 0.0
2017-Aug-15 09:00N 47°32' W 122°39'0 0.0
2017-Aug-15 08:27N 47°32' W 122°39'0 0.0
2017-Aug-15 08:00N 47°32' W 122°39'0 0.0
2017-Aug-15 07:21N 47°32' W 122°39'0 0.0
2017-Aug-15 07:00N 47°32' W 122°39'0 0.0
2017-Aug-15 06:30N 47°32' W 122°39'0 0.0
2017-Aug-15 06:00N 47°32' W 122°39'0 0.0
2017-Aug-15 05:30N 47°32' W 122°39'0 0.0
2017-Aug-15 05:00N 47°32' W 122°39'0 0.0
2017-Aug-15 04:27N 47°32' W 122°39'0 0.0
2017-Aug-15 04:00N 47°32' W 122°39'0 0.0
2017-Aug-15 03:24N 47°32' W 122°39'0 0.0
2017-Aug-15 03:00N 47°32' W 122°39'0 0.0
2017-Aug-15 02:30N 47°32' W 122°39'0 0.0
2017-Aug-15 02:00N 47°32' W 122°39'0 0.0
2017-Aug-15 01:30N 47°32' W 122°39'0 0.0
2017-Aug-15 01:00N 47°32' W 122°39'0 0.0
2017-Aug-15 00:27N 47°32' W 122°39'0 0.0
2017-Aug-14 23:57N 47°32' W 122°39'0 0.0
2017-Aug-14 23:30N 47°32' W 122°39'0 0.0
2017-Aug-14 23:00N 47°32' W 122°39'0 0.0
2017-Aug-14 22:27N 47°32' W 122°39'0 0.0
2017-Aug-14 22:00N 47°32' W 122°39'0 0.0
2017-Aug-14 21:30N 47°32' W 122°39'0 0.0
2017-Aug-14 21:00N 47°32' W 122°39'0 0.0
2017-Aug-14 20:30N 47°32' W 122°39'0 0.0
2017-Aug-14 20:00N 47°32' W 122°39'0 0.0
2017-Aug-14 19:27N 47°32' W 122°39'0 0.0
2017-Aug-14 18:54N 47°32' W 122°39'0 0.0
2017-Aug-14 18:30N 47°32' W 122°39'0 0.0
2017-Aug-14 18:00N 47°32' W 122°39'0 0.0
2017-Aug-14 17:30N 47°32' W 122°39'0 0.0
2017-Aug-14 16:57N 47°32' W 122°39'0 0.0
2017-Aug-14 16:27N 47°32' W 122°39'0 0.0
2017-Aug-14 16:00N 47°32' W 122°39'0 0.0
2017-Aug-14 15:30N 47°32' W 122°39'0 0.0
2017-Aug-14 15:00N 47°32' W 122°39'0 0.0
2017-Aug-14 14:27N 47°32' W 122°39'0 0.0
2017-Aug-14 14:00N 47°32' W 122°39'0 0.0
2017-Aug-14 13:30N 47°32' W 122°39'0 0.0
2017-Aug-14 13:00N 47°32' W 122°39'0 0.0
2017-Aug-14 12:30N 47°32' W 122°39'0 0.0
2017-Aug-14 12:00N 47°32' W 122°39'0 0.0
2017-Aug-14 11:30N 47°32' W 122°39'0 0.0
2017-Aug-14 11:00N 47°32' W 122°39'0 0.0
2017-Aug-14 10:30N 47°32' W 122°39'0 0.0
2017-Aug-14 10:00N 47°32' W 122°39'0 0.0
2017-Aug-14 09:30N 47°32' W 122°39'0 0.0
2017-Aug-14 09:00N 47°32' W 122°39'0 0.0
2017-Aug-14 08:27N 47°32' W 122°39'0 0.0
2017-Aug-14 08:00N 47°32' W 122°39'0 0.0
2017-Aug-14 07:27N 47°32' W 122°39'0 0.0
2017-Aug-14 06:57N 47°32' W 122°39'0 0.0
2017-Aug-14 06:27N 47°32' W 122°39'0 0.0
2017-Aug-14 06:00N 47°32' W 122°39'0 0.0
2017-Aug-14 05:27N 47°32' W 122°39'0 0.0
2017-Aug-14 04:54N 47°32' W 122°39'0 0.0
2017-Aug-14 04:15N 47°32' W 122°39'0 0.0
2017-Aug-14 04:00N 47°32' W 122°39'0 0.0
2017-Aug-14 03:30N 47°32' W 122°39'0 0.0
2017-Aug-14 03:00N 47°32' W 122°39'0 0.0
2017-Aug-14 02:24N 47°32' W 122°39'0 0.0
2017-Aug-14 02:00N 47°32' W 122°39'0 0.0
2017-Aug-14 01:30N 47°32' W 122°39'0 0.0
2017-Aug-14 00:57N 47°32' W 122°39'0 0.0
2017-Aug-14 00:24N 47°32' W 122°39'0 0.0
2017-Aug-13 23:57N 47°32' W 122°39'0 0.0
2017-Aug-13 23:27N 47°32' W 122°39'0 0.0
2017-Aug-13 23:00N 47°32' W 122°39'0 0.0
2017-Aug-13 22:30N 47°32' W 122°39'0 0.0
2017-Aug-13 22:00N 47°32' W 122°39'0 0.0
2017-Aug-13 21:30N 47°32' W 122°39'0 0.0
2017-Aug-13 21:00N 47°32' W 122°39'0 0.0
2017-Aug-13 20:30N 47°32' W 122°39'0 0.0
2017-Aug-13 19:48N 47°32' W 122°39'0 0.0
2017-Aug-13 19:30N 47°32' W 122°39'0 0.0
2017-Aug-13 19:00N 47°32' W 122°39'0 0.0
2017-Aug-13 18:30N 47°32' W 122°39'0 0.0
2017-Aug-13 18:00N 47°32' W 122°39'0 0.0
2017-Aug-13 17:27N 47°32' W 122°39'0 0.0
2017-Aug-13 16:57N 47°32' W 122°39'0 0.0
2017-Aug-13 16:27N 47°32' W 122°39'0 0.0
2017-Aug-13 16:00N 47°32' W 122°39'0 0.0
2017-Aug-13 15:30N 47°32' W 122°39'0 0.0
2017-Aug-13 15:00N 47°32' W 122°39'0 0.0
2017-Aug-13 14:30N 47°32' W 122°39'0 0.0
2017-Aug-13 14:00N 47°32' W 122°39'0 0.0
2017-Aug-13 13:30N 47°32' W 122°39'0 0.0
2017-Aug-13 13:00N 47°32' W 122°39'0 0.0
2017-Aug-13 12:30N 47°32' W 122°39'0 0.0
2017-Aug-13 12:00N 47°32' W 122°39'0 0.0
2017-Aug-13 11:27N 47°32' W 122°39'0 0.0
2017-Aug-13 11:00N 47°32' W 122°39'0 0.0
2017-Aug-13 10:24N 47°32' W 122°39'0 0.0
2017-Aug-13 10:00N 47°32' W 122°39'0 0.0
2017-Aug-13 09:30N 47°32' W 122°39'0 0.0
2017-Aug-13 08:57N 47°32' W 122°39'0 0.0
2017-Aug-13 08:27N 47°32' W 122°39'0 0.0
2017-Aug-13 08:00N 47°32' W 122°39'0 0.0
2017-Aug-13 07:30N 47°32' W 122°39'0 0.0
2017-Aug-13 07:00N 47°32' W 122°39'0 0.0
2017-Aug-13 06:30N 47°32' W 122°39'0 0.0
2017-Aug-13 06:00N 47°32' W 122°39'0 0.0
2017-Aug-13 05:30N 47°32' W 122°39'0 0.0
2017-Aug-13 05:00N 47°32' W 122°39'0 0.0
2017-Aug-13 04:30N 47°32' W 122°39'0 0.0
2017-Aug-13 03:57N 47°32' W 122°39'0 0.0
2017-Aug-13 03:30N 47°32' W 122°39'0 0.0
2017-Aug-13 02:44N 47°32' W 122°39'0 0.0
2017-Aug-13 02:28N 47°32' W 122°39'0 0.0
2017-Aug-13 01:57N 47°32' W 122°39'0 0.0
2017-Aug-13 01:30N 47°32' W 122°39'0 0.0
2017-Aug-13 01:00N 47°32' W 122°39'0 0.0
2017-Aug-13 00:30N 47°32' W 122°39'0 0.0
2017-Aug-13 00:00N 47°32' W 122°39'0 0.0
2017-Aug-12 23:27N 47°32' W 122°39'0 0.0
2017-Aug-12 22:59N 47°32' W 122°39'0 0.0
2017-Aug-12 22:28N 47°32' W 122°39'0 0.0
2017-Aug-12 21:58N 47°32' W 122°39'0 0.0
2017-Aug-12 21:30N 47°32' W 122°39'0 0.0
2017-Aug-12 20:58N 47°32' W 122°39'0 0.0
2017-Aug-12 20:30N 47°32' W 122°39'0 0.0
2017-Aug-12 20:00N 47°32' W 122°39'0 0.0
2017-Aug-12 19:30N 47°32' W 122°39'0 0.0
2017-Aug-12 18:57N 47°32' W 122°39'0 0.0
2017-Aug-12 18:26N 47°32' W 122°39'0 0.0
2017-Aug-12 17:58N 47°32' W 122°39'0 0.0
2017-Aug-12 17:28N 47°32' W 122°39'0 0.0
2017-Aug-12 17:00N 47°32' W 122°39'0 0.0
2017-Aug-12 16:27N 47°32' W 122°39'0 0.0
2017-Aug-12 15:59N 47°32' W 122°39'0 0.0
2017-Aug-12 15:30N 47°32' W 122°39'0 0.0
2017-Aug-12 14:52N 47°32' W 122°39'0 0.0
2017-Aug-12 14:27N 47°32' W 122°39'0 0.0
2017-Aug-12 13:53N 47°32' W 122°39'0 0.0
2017-Aug-12 13:21N 47°32' W 122°39'0 0.0
2017-Aug-12 12:55N 47°32' W 122°39'0 0.0
2017-Aug-12 12:30N 47°32' W 122°39'0 0.0
2017-Aug-12 08:51N 47°32' W 122°39'0 0.0
2017-Aug-12 08:27N 47°32' W 122°39'0 0.0
2017-Aug-12 07:56N 47°32' W 122°39'0 0.0
2017-Aug-12 07:27N 47°32' W 122°39'0 0.0
2017-Aug-12 06:41N 47°32' W 122°39'0 0.0
2017-Aug-12 06:24N 47°32' W 122°39'0 0.0
2017-Aug-12 05:56N 47°32' W 122°39'0 0.0
2017-Aug-12 05:27N 47°32' W 122°39'0 0.0
2017-Aug-12 05:00N 47°32' W 122°39'0 0.0
2017-Aug-12 04:30N 47°32' W 122°39'0 0.0
2017-Aug-12 03:56N 47°32' W 122°39'0 0.0
2017-Aug-12 03:30N 47°32' W 122°39'0 0.0
2017-Aug-12 02:55N 47°32' W 122°39'0 0.0
2017-Aug-12 02:27N 47°32' W 122°39'0 0.0
2017-Aug-12 01:59N 47°32' W 122°39'0 0.0
2017-Aug-12 01:30N 47°32' W 122°39'0 0.0
2017-Aug-12 00:54N 47°32' W 122°39'0 0.0
2017-Aug-12 00:30N 47°32' W 122°39'0 0.0
2017-Aug-11 22:53N 47°32' W 122°39'0 0.0
2017-Aug-11 22:15N 47°32' W 122°39'0 0.0
2017-Aug-11 21:59N 47°32' W 122°39'0 0.0
2017-Aug-11 20:53N 47°32' W 122°39'0 0.0
2017-Aug-11 20:17N 47°32' W 122°39'0 0.0
2017-Aug-11 19:53N 47°32' W 122°39'0 0.0
2017-Aug-11 19:02N 47°32' W 122°39'0 0.0
2017-Aug-11 18:56N 47°32' W 122°39'0 0.0
2017-Aug-11 18:20N 47°32' W 122°39'0 0.0
2017-Aug-11 17:20N 47°32' W 122°39'0 0.0
2017-Aug-11 15:41N 47°32' W 122°39'0 0.0
2017-Aug-11 15:14N 47°32' W 122°39'0 0.0
2017-Aug-11 14:59N 47°32' W 122°39'0 0.0
2017-Aug-11 12:11N 47°32' W 122°39'0 0.0
2017-Aug-11 11:08N 47°32' W 122°39'0 0.0
2017-Aug-11 10:54N 47°32' W 122°39'0 0.0
2017-Aug-11 10:14N 47°32' W 122°39'0 0.0
2017-Aug-11 09:59N 47°32' W 122°39'0 0.0
2017-Aug-11 09:30N 47°32' W 122°39'0 0.0
2017-Aug-11 09:00N 47°32' W 122°39'0 0.0
2017-Aug-11 08:30N 47°32' W 122°39'0 0.0
2017-Aug-11 07:56N 47°32' W 122°39'0 0.0
2017-Aug-11 07:30N 47°32' W 122°39'0 0.0
2017-Aug-11 06:59N 47°32' W 122°39'0 0.0
2017-Aug-11 06:26N 47°32' W 122°39'0 0.0
2017-Aug-11 05:59N 47°32' W 122°39'0 0.0
2017-Aug-11 05:29N 47°32' W 122°39'0 0.0
2017-Aug-11 05:01N 47°32' W 122°39'0 0.0
2017-Aug-11 04:29N 47°32' W 122°39'0 0.0
2017-Aug-11 03:59N 47°32' W 122°39'0 0.0
2017-Aug-11 03:30N 47°32' W 122°39'0 0.0
2017-Aug-11 03:00N 47°32' W 122°39'0 0.0
2017-Aug-11 02:30N 47°32' W 122°39'0 0.0
2017-Aug-11 02:00N 47°32' W 122°39'0 0.0
2017-Aug-11 01:29N 47°32' W 122°39'0 0.0
2017-Aug-11 00:57N 47°32' W 122°39'0 0.0
2017-Aug-11 00:30N 47°32' W 122°39'0 0.0
2017-Aug-11 00:00N 47°32' W 122°39'0 0.0
2017-Aug-10 23:27N 47°32' W 122°39'0 0.0
2017-Aug-10 22:59N 47°32' W 122°39'0 0.0
2017-Aug-10 22:29N 47°32' W 122°39'0 0.0
2017-Aug-10 21:56N 47°32' W 122°39'0 0.0
2017-Aug-10 21:29N 47°32' W 122°39'0 0.0
2017-Aug-10 20:59N 47°32' W 122°39'0 0.0
2017-Aug-10 20:29N 47°32' W 122°39'0 0.0
2017-Aug-10 19:59N 47°32' W 122°39'0 0.0
2017-Aug-10 19:29N 47°32' W 122°39'0 0.0
2017-Aug-10 18:59N 47°32' W 122°39'0 0.0
2017-Aug-10 18:29N 47°32' W 122°39'0 0.0
2017-Aug-10 17:56N 47°32' W 122°39'0 0.0
2017-Aug-10 17:29N 47°32' W 122°39'0 0.0
2017-Aug-10 16:59N 47°32' W 122°39'0 0.0
2017-Aug-10 16:29N 47°32' W 122°39'0 0.0
2017-Aug-10 15:59N 47°32' W 122°39'0 0.0
2017-Aug-10 15:29N 47°32' W 122°39'0 0.0
2017-Aug-10 14:59N 47°32' W 122°39'0 0.0
2017-Aug-10 14:26N 47°32' W 122°39'0 0.0
2017-Aug-10 13:53N 47°32' W 122°39'0 0.0
2017-Aug-10 13:29N 47°32' W 122°39'0 0.0
2017-Aug-10 12:59N 47°32' W 122°39'0 0.0
2017-Aug-10 12:29N 47°32' W 122°39'0 0.0
2017-Aug-10 11:59N 47°32' W 122°39'0 0.0
2017-Aug-10 11:29N 47°32' W 122°39'0 0.0
2017-Aug-10 10:56N 47°32' W 122°39'0 0.0
2017-Aug-10 10:29N 47°32' W 122°39'0 0.0
2017-Aug-10 09:59N 47°32' W 122°39'0 0.0
2017-Aug-10 09:29N 47°32' W 122°39'0 0.0
2017-Aug-10 08:59N 47°32' W 122°39'0 0.0
2017-Aug-10 08:29N 47°32' W 122°39'0 0.0
2017-Aug-10 07:59N 47°32' W 122°39'0 0.0
2017-Aug-10 07:29N 47°32' W 122°39'0 0.0
2017-Aug-10 06:59N 47°32' W 122°39'0 0.0
2017-Aug-10 06:26N 47°32' W 122°39'0 0.0
2017-Aug-10 05:59N 47°32' W 122°39'0 0.0
2017-Aug-10 05:29N 47°32' W 122°39'0 0.0
2017-Aug-10 04:59N 47°32' W 122°39'0 0.0
2017-Aug-10 04:29N 47°32' W 122°39'0 0.0
2017-Aug-10 03:59N 47°32' W 122°39'0 0.0
2017-Aug-10 03:29N 47°32' W 122°39'0 0.0
2017-Aug-10 02:59N 47°32' W 122°39'0 0.0
2017-Aug-10 02:29N 47°32' W 122°39'0 0.0
2017-Aug-10 01:59N 47°32' W 122°39'0 0.0
2017-Aug-10 01:29N 47°32' W 122°39'0 0.0
2017-Aug-10 00:59N 47°32' W 122°39'0 0.0
2017-Aug-10 00:29N 47°32' W 122°39'0 0.0
2017-Aug-09 22:26N 47°32' W 122°39'0 0.0
2017-Aug-09 21:59N 47°32' W 122°39'0 0.0
2017-Aug-09 21:26N 47°32' W 122°39'0 0.0
2017-Aug-09 20:59N 47°32' W 122°39'0 0.0
2017-Aug-09 01:59N 47°32' W 122°39'0 0.0
2017-Aug-09 01:29N 47°32' W 122°39'0 0.0
2017-Aug-09 00:59N 47°32' W 122°39'0 0.0
2017-Aug-09 00:29N 47°32' W 122°39'0 0.0
2017-Aug-08 23:59N 47°32' W 122°39'0 0.0
2017-Aug-08 23:29N 47°32' W 122°39'0 0.0
2017-Aug-08 22:59N 47°32' W 122°39'0 0.0
2017-Aug-08 22:29N 47°32' W 122°39'0 0.0
2017-Aug-08 21:59N 47°32' W 122°39'0 0.0
2017-Aug-08 20:23N 47°32' W 122°39'0 0.0
2017-Aug-08 19:59N 47°32' W 122°39'0 0.0
2017-Aug-08 19:29N 47°32' W 122°39'0 0.0
2017-Aug-08 04:01N 47°32' W 122°39'0 0.0
2017-Aug-08 03:55N 47°32' W 122°39'0 0.0
2017-Aug-08 03:28N 47°32' W 122°39'0 0.0
2017-Aug-08 02:58N 47°32' W 122°39'0 0.0
2017-Aug-08 02:28N 47°32' W 122°39'0 0.0
2017-Aug-08 01:58N 47°32' W 122°39'0 0.0
2017-Aug-08 01:25N 47°32' W 122°39'0 0.0
2017-Aug-08 00:57N 47°32' W 122°39'0 0.0
2017-Aug-08 00:30N 47°32' W 122°39'0 0.0
2017-Aug-07 19:42N 47°32' W 122°39'  
Track history (hours):
 
Tides and Currents Weather Stations Pressure Air Temp Water Temp Dewpoint Dewpoint Depression Visibility Wind Speed Wind Dir Waves Ship Positions

Raven's Dance

Owner: Lassila, Donald A, Gig Harbor, WA. More information available from US FCC via Universal Licensing System and Coast Guard Vessel Documentation Center.

Last reported at 2017-Aug-17 14:59 UTC. Time now 2017-Aug-17 15:19 UTC.
Position N 47°24' W 122°20'.

Length 14 m.

Type: Sailing vessel. MMSI: 367482370.

Date/timePositionNaut miles runAvg speedWind from/ knotsBaromVisibWave heightAir tempDewpointWater temp
2017-Aug-17 14:59N 47°24' W 122°20'0 0.0
2017-Aug-17 14:29N 47°24' W 122°20'0 0.0
2017-Aug-17 13:59N 47°24' W 122°20'0 0.0
2017-Aug-17 13:26N 47°24' W 122°20'0 0.0
2017-Aug-17 12:56N 47°24' W 122°20'0 0.0
2017-Aug-17 12:29N 47°24' W 122°20'0 0.0
2017-Aug-17 11:59N 47°24' W 122°20'0 0.0
2017-Aug-17 11:29N 47°24' W 122°20'0 0.0
2017-Aug-17 10:59N 47°24' W 122°20'0 0.0
2017-Aug-17 10:29N 47°24' W 122°20'0 0.0
2017-Aug-17 09:59N 47°24' W 122°20'0 0.0
2017-Aug-17 09:29N 47°24' W 122°20'0 0.0
2017-Aug-17 08:59N 47°24' W 122°20'0 0.0
2017-Aug-17 08:29N 47°24' W 122°20'0 0.0
2017-Aug-17 07:56N 47°24' W 122°20'0 0.0
2017-Aug-17 07:29N 47°24' W 122°20'0 0.0
2017-Aug-17 06:59N 47°24' W 122°20'0 0.0
2017-Aug-17 06:29N 47°24' W 122°20'0 0.0
2017-Aug-17 05:59N 47°24' W 122°20'0 0.0
2017-Aug-17 05:29N 47°24' W 122°20'0 0.0
2017-Aug-17 04:59N 47°24' W 122°20'0 0.0
2017-Aug-17 04:29N 47°24' W 122°20'0 0.0
2017-Aug-17 03:59N 47°24' W 122°20'0 0.0
2017-Aug-17 03:29N 47°24' W 122°20'0 0.0
2017-Aug-17 02:59N 47°24' W 122°20'0 0.0
2017-Aug-17 02:29N 47°24' W 122°20'0 0.0
2017-Aug-17 01:59N 47°24' W 122°20'0 0.4
2017-Aug-17 01:30N 47°24' W 122°20'2 4.5
2017-Aug-17 01:00N 47°26' W 122°22'3 6.6
2017-Aug-17 00:30N 47°29' W 122°25'3 6.6
2017-Aug-17 00:00N 47°31' W 122°27'3 6.6
2017-Aug-16 23:30N 47°34' W 122°31'3 5.8
2017-Aug-16 23:00N 47°35' W 122°34'3 6.6
2017-Aug-16 22:30N 47°33' W 122°38'1 1.1
2017-Aug-16 22:00N 47°32' W 122°39'0 0.0
2017-Aug-16 21:30N 47°32' W 122°39'0 0.0
2017-Aug-16 21:00N 47°32' W 122°39'0 0.0
2017-Aug-16 20:30N 47°32' W 122°39'0 0.0
2017-Aug-16 20:00N 47°32' W 122°39'0 0.0
2017-Aug-16 19:27N 47°32' W 122°39'0 0.0
2017-Aug-16 18:57N 47°32' W 122°39'0 0.0
2017-Aug-16 18:30N 47°32' W 122°39'0 0.0
2017-Aug-16 18:00N 47°32' W 122°39'0 0.0
2017-Aug-16 17:27N 47°32' W 122°39'0 0.0
2017-Aug-16 16:57N 47°32' W 122°39'0 0.0
2017-Aug-16 16:27N 47°32' W 122°39'0 0.0
2017-Aug-16 15:54N 47°32' W 122°39'0 0.0
2017-Aug-16 15:27N 47°32' W 122°39'0 0.0
2017-Aug-16 15:00N 47°32' W 122°39'0 0.0
2017-Aug-16 14:27N 47°32' W 122°39'0 0.0
2017-Aug-16 14:00N 47°32' W 122°39'0 0.0
2017-Aug-16 13:30N 47°32' W 122°39'0 0.0
2017-Aug-16 13:00N 47°32' W 122°39'0 0.0
2017-Aug-16 12:30N 47°32' W 122°39'0 0.0
2017-Aug-16 12:00N 47°32' W 122°39'0 0.0
2017-Aug-16 11:30N 47°32' W 122°39'0 0.0
2017-Aug-16 11:00N 47°32' W 122°39'0 0.0
2017-Aug-16 10:27N 47°32' W 122°39'0 0.0
2017-Aug-16 10:00N 47°32' W 122°39'0 0.0
2017-Aug-16 09:30N 47°32' W 122°39'0 0.0
2017-Aug-16 09:00N 47°32' W 122°39'0 0.0
2017-Aug-16 08:30N 47°32' W 122°39'0 0.0
2017-Aug-16 07:57N 47°32' W 122°39'0 0.0
2017-Aug-16 07:30N 47°32' W 122°39'0 0.0
2017-Aug-16 07:00N 47°32' W 122°39'0 0.0
2017-Aug-16 06:30N 47°32' W 122°39'0 0.0
2017-Aug-16 06:00N 47°32' W 122°39'0 0.0
2017-Aug-16 05:30N 47°32' W 122°39'0 0.0
2017-Aug-16 05:00N 47°32' W 122°39'0 0.0
2017-Aug-16 04:30N 47°32' W 122°39'0 0.0
2017-Aug-16 04:00N 47°32' W 122°39'0 0.0
2017-Aug-16 03:30N 47°32' W 122°39'0 0.0
2017-Aug-16 03:00N 47°32' W 122°39'0 0.0
2017-Aug-16 02:30N 47°32' W 122°39'0 0.0
2017-Aug-16 02:00N 47°32' W 122°39'0 0.0
2017-Aug-16 01:30N 47°32' W 122°39'0 0.0
2017-Aug-16 00:57N 47°32' W 122°39'0 0.0
2017-Aug-16 00:30N 47°32' W 122°39'0 0.0
2017-Aug-16 00:00N 47°32' W 122°39'0 0.0
2017-Aug-15 23:30N 47°32' W 122°39'0 0.0
2017-Aug-15 22:57N 47°32' W 122°39'0 0.0
2017-Aug-15 22:30N 47°32' W 122°39'0 0.0
2017-Aug-15 21:57N 47°32' W 122°39'0 0.0
2017-Aug-15 21:30N 47°32' W 122°39'0 0.0
2017-Aug-15 21:00N 47°32' W 122°39'0 0.0
2017-Aug-15 20:30N 47°32' W 122°39'0 0.0
2017-Aug-15 20:00N 47°32' W 122°39'0 0.0
2017-Aug-15 19:27N 47°32' W 122°39'0 0.0
2017-Aug-15 18:51N 47°32' W 122°39'0 0.0
2017-Aug-15 18:24N 47°32' W 122°39'0 0.0
2017-Aug-15 18:00N 47°32' W 122°39'0 0.0
2017-Aug-15 17:30N 47°32' W 122°39'0 0.0
2017-Aug-15 17:00N 47°32' W 122°39'0 0.0
2017-Aug-15 16:30N 47°32' W 122°39'0 0.0
2017-Aug-15 16:00N 47°32' W 122°39'0 0.0
2017-Aug-15 15:30N 47°32' W 122°39'0 0.0
2017-Aug-15 15:00N 47°32' W 122°39'0 0.0
2017-Aug-15 14:24N 47°32' W 122°39'0 0.0
2017-Aug-15 14:00N 47°32' W 122°39'0 0.0
2017-Aug-15 13:30N 47°32' W 122°39'0 0.0
2017-Aug-15 13:00N 47°32' W 122°39'0 0.0
2017-Aug-15 12:30N 47°32' W 122°39'0 0.0
2017-Aug-15 12:00N 47°32' W 122°39'0 0.0
2017-Aug-15 11:27N 47°32' W 122°39'0 0.0
2017-Aug-15 11:00N 47°32' W 122°39'0 0.0
2017-Aug-15 10:30N 47°32' W 122°39'0 0.0
2017-Aug-15 10:00N 47°32' W 122°39'0 0.0
2017-Aug-15 09:30N 47°32' W 122°39'0 0.0
2017-Aug-15 09:00N 47°32' W 122°39'0 0.0
2017-Aug-15 08:27N 47°32' W 122°39'0 0.0
2017-Aug-15 08:00N 47°32' W 122°39'0 0.0
2017-Aug-15 07:21N 47°32' W 122°39'0 0.0
2017-Aug-15 07:00N 47°32' W 122°39'0 0.0
2017-Aug-15 06:30N 47°32' W 122°39'0 0.0
2017-Aug-15 06:00N 47°32' W 122°39'0 0.0
2017-Aug-15 05:30N 47°32' W 122°39'0 0.0
2017-Aug-15 05:00N 47°32' W 122°39'0 0.0
2017-Aug-15 04:27N 47°32' W 122°39'0 0.0
2017-Aug-15 04:00N 47°32' W 122°39'0 0.0
2017-Aug-15 03:24N 47°32' W 122°39'0 0.0
2017-Aug-15 03:00N 47°32' W 122°39'0 0.0
2017-Aug-15 02:30N 47°32' W 122°39'0 0.0
2017-Aug-15 02:00N 47°32' W 122°39'0 0.0
2017-Aug-15 01:30N 47°32' W 122°39'0 0.0
2017-Aug-15 01:00N 47°32' W 122°39'0 0.0
2017-Aug-15 00:27N 47°32' W 122°39'0 0.0
2017-Aug-14 23:57N 47°32' W 122°39'0 0.0
2017-Aug-14 23:30N 47°32' W 122°39'0 0.0
2017-Aug-14 23:00N 47°32' W 122°39'0 0.0
2017-Aug-14 22:27N 47°32' W 122°39'0 0.0
2017-Aug-14 22:00N 47°32' W 122°39'0 0.0
2017-Aug-14 21:30N 47°32' W 122°39'0 0.0
2017-Aug-14 21:00N 47°32' W 122°39'0 0.0
2017-Aug-14 20:30N 47°32' W 122°39'0 0.0
2017-Aug-14 20:00N 47°32' W 122°39'0 0.0
2017-Aug-14 19:27N 47°32' W 122°39'0 0.0
2017-Aug-14 18:54N 47°32' W 122°39'0 0.0
2017-Aug-14 18:30N 47°32' W 122°39'0 0.0
2017-Aug-14 18:00N 47°32' W 122°39'0 0.0
2017-Aug-14 17:30N 47°32' W 122°39'0 0.0
2017-Aug-14 16:57N 47°32' W 122°39'0 0.0
2017-Aug-14 16:27N 47°32' W 122°39'0 0.0
2017-Aug-14 16:00N 47°32' W 122°39'0 0.0
2017-Aug-14 15:30N 47°32' W 122°39'0 0.0
2017-Aug-14 15:00N 47°32' W 122°39'0 0.0
2017-Aug-14 14:27N 47°32' W 122°39'0 0.0
2017-Aug-14 14:00N 47°32' W 122°39'0 0.0
2017-Aug-14 13:30N 47°32' W 122°39'0 0.0
2017-Aug-14 13:00N 47°32' W 122°39'0 0.0
2017-Aug-14 12:30N 47°32' W 122°39'0 0.0
2017-Aug-14 12:00N 47°32' W 122°39'0 0.0
2017-Aug-14 11:30N 47°32' W 122°39'0 0.0
2017-Aug-14 11:00N 47°32' W 122°39'0 0.0
2017-Aug-14 10:30N 47°32' W 122°39'0 0.0
2017-Aug-14 10:00N 47°32' W 122°39'0 0.0
2017-Aug-14 09:30N 47°32' W 122°39'0 0.0
2017-Aug-14 09:00N 47°32' W 122°39'0 0.0
2017-Aug-14 08:27N 47°32' W 122°39'0 0.0
2017-Aug-14 08:00N 47°32' W 122°39'0 0.0
2017-Aug-14 07:27N 47°32' W 122°39'0 0.0
2017-Aug-14 06:57N 47°32' W 122°39'0 0.0
2017-Aug-14 06:27N 47°32' W 122°39'0 0.0
2017-Aug-14 06:00N 47°32' W 122°39'0 0.0
2017-Aug-14 05:27N 47°32' W 122°39'0 0.0
2017-Aug-14 04:54N 47°32' W 122°39'0 0.0
2017-Aug-14 04:15N 47°32' W 122°39'0 0.0
2017-Aug-14 04:00N 47°32' W 122°39'0 0.0
2017-Aug-14 03:30N 47°32' W 122°39'0 0.0
2017-Aug-14 03:00N 47°32' W 122°39'0 0.0
2017-Aug-14 02:24N 47°32' W 122°39'0 0.0
2017-Aug-14 02:00N 47°32' W 122°39'0 0.0
2017-Aug-14 01:30N 47°32' W 122°39'0 0.0
2017-Aug-14 00:57N 47°32' W 122°39'0 0.0
2017-Aug-14 00:24N 47°32' W 122°39'0 0.0
2017-Aug-13 23:57N 47°32' W 122°39'0 0.0
2017-Aug-13 23:27N 47°32' W 122°39'0 0.0
2017-Aug-13 23:00N 47°32' W 122°39'0 0.0
2017-Aug-13 22:30N 47°32' W 122°39'0 0.0
2017-Aug-13 22:00N 47°32' W 122°39'0 0.0
2017-Aug-13 21:30N 47°32' W 122°39'0 0.0
2017-Aug-13 21:00N 47°32' W 122°39'0 0.0
2017-Aug-13 20:30N 47°32' W 122°39'0 0.0
2017-Aug-13 19:48N 47°32' W 122°39'0 0.0
2017-Aug-13 19:30N 47°32' W 122°39'0 0.0
2017-Aug-13 19:00N 47°32' W 122°39'0 0.0
2017-Aug-13 18:30N 47°32' W 122°39'0 0.0
2017-Aug-13 18:00N 47°32' W 122°39'0 0.0
2017-Aug-13 17:27N 47°32' W 122°39'0 0.0
2017-Aug-13 16:57N 47°32' W 122°39'0 0.0
2017-Aug-13 16:27N 47°32' W 122°39'0 0.0
2017-Aug-13 16:00N 47°32' W 122°39'0 0.0
2017-Aug-13 15:30N 47°32' W 122°39'0 0.0
2017-Aug-13 15:00N 47°32' W 122°39'0 0.0
2017-Aug-13 14:30N 47°32' W 122°39'0 0.0
2017-Aug-13 14:00N 47°32' W 122°39'0 0.0
2017-Aug-13 13:30N 47°32' W 122°39'0 0.0
2017-Aug-13 13:00N 47°32' W 122°39'0 0.0
2017-Aug-13 12:30N 47°32' W 122°39'0 0.0
2017-Aug-13 12:00N 47°32' W 122°39'0 0.0
2017-Aug-13 11:27N 47°32' W 122°39'0 0.0
2017-Aug-13 11:00N 47°32' W 122°39'0 0.0
2017-Aug-13 10:24N 47°32' W 122°39'0 0.0
2017-Aug-13 10:00N 47°32' W 122°39'0 0.0
2017-Aug-13 09:30N 47°32' W 122°39'0 0.0
2017-Aug-13 08:57N 47°32' W 122°39'0 0.0
2017-Aug-13 08:27N 47°32' W 122°39'0 0.0
2017-Aug-13 08:00N 47°32' W 122°39'0 0.0
2017-Aug-13 07:30N 47°32' W 122°39'0 0.0
2017-Aug-13 07:00N 47°32' W 122°39'0 0.0
2017-Aug-13 06:30N 47°32' W 122°39'0 0.0
2017-Aug-13 06:00N 47°32' W 122°39'0 0.0
2017-Aug-13 05:30N 47°32' W 122°39'0 0.0
2017-Aug-13 05:00N 47°32' W 122°39'0 0.0
2017-Aug-13 04:30N 47°32' W 122°39'0 0.0
2017-Aug-13 03:57N 47°32' W 122°39'0 0.0
2017-Aug-13 03:30N 47°32' W 122°39'0 0.0
2017-Aug-13 02:44N 47°32' W 122°39'0 0.0
2017-Aug-13 02:28N 47°32' W 122°39'0 0.0
2017-Aug-13 01:57N 47°32' W 122°39'0 0.0
2017-Aug-13 01:30N 47°32' W 122°39'0 0.0
2017-Aug-13 01:00N 47°32' W 122°39'0 0.0
2017-Aug-13 00:30N 47°32' W 122°39'0 0.0
2017-Aug-13 00:00N 47°32' W 122°39'0 0.0
2017-Aug-12 23:27N 47°32' W 122°39'0 0.0
2017-Aug-12 22:59N 47°32' W 122°39'0 0.0
2017-Aug-12 22:28N 47°32' W 122°39'0 0.0
2017-Aug-12 21:58N 47°32' W 122°39'0 0.0
2017-Aug-12 21:30N 47°32' W 122°39'0 0.0
2017-Aug-12 20:58N 47°32' W 122°39'0 0.0
2017-Aug-12 20:30N 47°32' W 122°39'0 0.0
2017-Aug-12 20:00N 47°32' W 122°39'0 0.0
2017-Aug-12 19:30N 47°32' W 122°39'0 0.0
2017-Aug-12 18:57N 47°32' W 122°39'0 0.0
2017-Aug-12 18:26N 47°32' W 122°39'0 0.0
2017-Aug-12 17:58N 47°32' W 122°39'0 0.0
2017-Aug-12 17:28N 47°32' W 122°39'0 0.0
2017-Aug-12 17:00N 47°32' W 122°39'0 0.0
2017-Aug-12 16:27N 47°32' W 122°39'0 0.0
2017-Aug-12 15:59N 47°32' W 122°39'0 0.0
2017-Aug-12 15:30N 47°32' W 122°39'0 0.0
2017-Aug-12 14:52N 47°32' W 122°39'0 0.0
2017-Aug-12 14:27N 47°32' W 122°39'0 0.0
2017-Aug-12 13:53N 47°32' W 122°39'0 0.0
2017-Aug-12 13:21N 47°32' W 122°39'0 0.0
2017-Aug-12 12:55N 47°32' W 122°39'0 0.0
2017-Aug-12 12:30N 47°32' W 122°39'0 0.0
2017-Aug-12 08:51N 47°32' W 122°39'0 0.0
2017-Aug-12 08:27N 47°32' W 122°39'0 0.0
2017-Aug-12 07:56N 47°32' W 122°39'0 0.0
2017-Aug-12 07:27N 47°32' W 122°39'0 0.0
2017-Aug-12 06:41N 47°32' W 122°39'0 0.0
2017-Aug-12 06:24N 47°32' W 122°39'0 0.0
2017-Aug-12 05:56N 47°32' W 122°39'0 0.0
2017-Aug-12 05:27N 47°32' W 122°39'0 0.0
2017-Aug-12 05:00N 47°32' W 122°39'0 0.0
2017-Aug-12 04:30N 47°32' W 122°39'0 0.0
2017-Aug-12 03:56N 47°32' W 122°39'0 0.0
2017-Aug-12 03:30N 47°32' W 122°39'0 0.0
2017-Aug-12 02:55N 47°32' W 122°39'0 0.0
2017-Aug-12 02:27N 47°32' W 122°39'0 0.0
2017-Aug-12 01:59N 47°32' W 122°39'0 0.0
2017-Aug-12 01:30N 47°32' W 122°39'0 0.0
2017-Aug-12 00:54N 47°32' W 122°39'0 0.0
2017-Aug-12 00:30N 47°32' W 122°39'0 0.0
2017-Aug-11 22:53N 47°32' W 122°39'0 0.0
2017-Aug-11 22:15N 47°32' W 122°39'0 0.0
2017-Aug-11 21:59N 47°32' W 122°39'0 0.0
2017-Aug-11 20:53N 47°32' W 122°39'0 0.0
2017-Aug-11 20:17N 47°32' W 122°39'0 0.0
2017-Aug-11 19:53N 47°32' W 122°39'0 0.0
2017-Aug-11 19:02N 47°32' W 122°39'0 0.0
2017-Aug-11 18:56N 47°32' W 122°39'0 0.0
2017-Aug-11 18:20N 47°32' W 122°39'0 0.0
2017-Aug-11 17:20N 47°32' W 122°39'0 0.0
2017-Aug-11 15:41N 47°32' W 122°39'0 0.0
2017-Aug-11 15:14N 47°32' W 122°39'0 0.0
2017-Aug-11 14:59N 47°32' W 122°39'0 0.0
2017-Aug-11 12:11N 47°32' W 122°39'0 0.0
2017-Aug-11 11:08N 47°32' W 122°39'0 0.0
2017-Aug-11 10:54N 47°32' W 122°39'0 0.0
2017-Aug-11 10:14N 47°32' W 122°39'0 0.0
2017-Aug-11 09:59N 47°32' W 122°39'0 0.0
2017-Aug-11 09:30N 47°32' W 122°39'0 0.0
2017-Aug-11 09:00N 47°32' W 122°39'0 0.0
2017-Aug-11 08:30N 47°32' W 122°39'0 0.0
2017-Aug-11 07:56N 47°32' W 122°39'0 0.0
2017-Aug-11 07:30N 47°32' W 122°39'0 0.0
2017-Aug-11 06:59N 47°32' W 122°39'0 0.0
2017-Aug-11 06:26N 47°32' W 122°39'0 0.0
2017-Aug-11 05:59N 47°32' W 122°39'0 0.0
2017-Aug-11 05:29N 47°32' W 122°39'0 0.0
2017-Aug-11 05:01N 47°32' W 122°39'0 0.0
2017-Aug-11 04:29N 47°32' W 122°39'0 0.0
2017-Aug-11 03:59N 47°32' W 122°39'0 0.0
2017-Aug-11 03:30N 47°32' W 122°39'0 0.0
2017-Aug-11 03:00N 47°32' W 122°39'0 0.0
2017-Aug-11 02:30N 47°32' W 122°39'0 0.0
2017-Aug-11 02:00N 47°32' W 122°39'0 0.0
2017-Aug-11 01:29N 47°32' W 122°39'0 0.0
2017-Aug-11 00:57N 47°32' W 122°39'0 0.0
2017-Aug-11 00:30N 47°32' W 122°39'0 0.0
2017-Aug-11 00:00N 47°32' W 122°39'0 0.0
2017-Aug-10 23:27N 47°32' W 122°39'0 0.0
2017-Aug-10 22:59N 47°32' W 122°39'0 0.0
2017-Aug-10 22:29N 47°32' W 122°39'0 0.0
2017-Aug-10 21:56N 47°32' W 122°39'0 0.0
2017-Aug-10 21:29N 47°32' W 122°39'0 0.0
2017-Aug-10 20:59N 47°32' W 122°39'0 0.0
2017-Aug-10 20:29N 47°32' W 122°39'0 0.0
2017-Aug-10 19:59N 47°32' W 122°39'0 0.0
2017-Aug-10 19:29N 47°32' W 122°39'0 0.0
2017-Aug-10 18:59N 47°32' W 122°39'0 0.0
2017-Aug-10 18:29N 47°32' W 122°39'0 0.0
2017-Aug-10 17:56N 47°32' W 122°39'0 0.0
2017-Aug-10 17:29N 47°32' W 122°39'0 0.0
2017-Aug-10 16:59N 47°32' W 122°39'0 0.0
2017-Aug-10 16:29N 47°32' W 122°39'0 0.0
2017-Aug-10 15:59N 47°32' W 122°39'0 0.0
2017-Aug-10 15:29N 47°32' W 122°39'0 0.0
2017-Aug-10 14:59N 47°32' W 122°39'0 0.0
2017-Aug-10 14:26N 47°32' W 122°39'0 0.0
2017-Aug-10 13:53N 47°32' W 122°39'0 0.0
2017-Aug-10 13:29N 47°32' W 122°39'0 0.0
2017-Aug-10 12:59N 47°32' W 122°39'0 0.0
2017-Aug-10 12:29N 47°32' W 122°39'0 0.0
2017-Aug-10 11:59N 47°32' W 122°39'0 0.0
2017-Aug-10 11:29N 47°32' W 122°39'0 0.0
2017-Aug-10 10:56N 47°32' W 122°39'0 0.0
2017-Aug-10 10:29N 47°32' W 122°39'0 0.0
2017-Aug-10 09:59N 47°32' W 122°39'0 0.0
2017-Aug-10 09:29N 47°32' W 122°39'0 0.0
2017-Aug-10 08:59N 47°32' W 122°39'0 0.0
2017-Aug-10 08:29N 47°32' W 122°39'0 0.0
2017-Aug-10 07:59N 47°32' W 122°39'0 0.0
2017-Aug-10 07:29N 47°32' W 122°39'0 0.0
2017-Aug-10 06:59N 47°32' W 122°39'0 0.0
2017-Aug-10 06:26N 47°32' W 122°39'0 0.0
2017-Aug-10 05:59N 47°32' W 122°39'0 0.0
2017-Aug-10 05:29N 47°32' W 122°39'0 0.0
2017-Aug-10 04:59N 47°32' W 122°39'0 0.0
2017-Aug-10 04:29N 47°32' W 122°39'0 0.0
2017-Aug-10 03:59N 47°32' W 122°39'0 0.0
2017-Aug-10 03:29N 47°32' W 122°39'0 0.0
2017-Aug-10 02:59N 47°32' W 122°39'0 0.0
2017-Aug-10 02:29N 47°32' W 122°39'0 0.0
2017-Aug-10 01:59N 47°32' W 122°39'0 0.0
2017-Aug-10 01:29N 47°32' W 122°39'0 0.0
2017-Aug-10 00:59N 47°32' W 122°39'0 0.0
2017-Aug-10 00:29N 47°32' W 122°39'0 0.0
2017-Aug-09 22:26N 47°32' W 122°39'0 0.0
2017-Aug-09 21:59N 47°32' W 122°39'0 0.0
2017-Aug-09 21:26N 47°32' W 122°39'0 0.0
2017-Aug-09 20:59N 47°32' W 122°39'0 0.0
2017-Aug-09 01:59N 47°32' W 122°39'0 0.0
2017-Aug-09 01:29N 47°32' W 122°39'0 0.0
2017-Aug-09 00:59N 47°32' W 122°39'0 0.0
2017-Aug-09 00:29N 47°32' W 122°39'0 0.0
2017-Aug-08 23:59N 47°32' W 122°39'0 0.0
2017-Aug-08 23:29N 47°32' W 122°39'0 0.0
2017-Aug-08 22:59N 47°32' W 122°39'0 0.0
2017-Aug-08 22:29N 47°32' W 122°39'0 0.0
2017-Aug-08 21:59N 47°32' W 122°39'0 0.0
2017-Aug-08 20:23N 47°32' W 122°39'0 0.0
2017-Aug-08 19:59N 47°32' W 122°39'0 0.0
2017-Aug-08 19:29N 47°32' W 122°39'0 0.0
2017-Aug-08 04:01N 47°32' W 122°39'0 0.0
2017-Aug-08 03:55N 47°32' W 122°39'0 0.0
2017-Aug-08 03:28N 47°32' W 122°39'0 0.0
2017-Aug-08 02:58N 47°32' W 122°39'0 0.0
2017-Aug-08 02:28N 47°32' W 122°39'0 0.0
2017-Aug-08 01:58N 47°32' W 122°39'0 0.0
2017-Aug-08 01:25N 47°32' W 122°39'0 0.0
2017-Aug-08 00:57N 47°32' W 122°39'0 0.0
2017-Aug-08 00:30N 47°32' W 122°39'0 0.0
2017-Aug-07 19:42N 47°32' W 122°39'  

Dump ship's entire track history